Time;durP1;ratioP1;P1;durP2;ratioP2;P2;SDS_P1;SDS_P2;PMS_P1;PMS_P2;Temp;Humidity;BMP_temperature;BMP_pressure;BME280_temperature;BME280_humidity;BME280_pressure;Samples;Min_cycle;Max_cycle;Signal;HPM_P1;HPM_P2
2024/02/08 00:01:58;;;;;;;4.43;2.93;;;2.90;99.90;;;-141.84;100.00;112028.13;5017749;28;20206;-55
2024/02/08 00:04:27;;;;;;;4.93;3.40;;;2.90;99.90;;;-141.84;100.00;115490.59;5009245;28;20200;-50
2024/02/08 00:06:55;;;;;;;5.77;2.83;;;2.80;99.90;;;-141.84;100.00;117622.84;5008616;28;20529;-52
2024/02/08 00:09:23;;;;;;;7.63;2.97;;;2.70;99.90;;;-141.84;100.00;118689.38;5008523;28;20218;-54
2024/02/08 00:11:52;;;;;;;4.83;3.20;;;2.70;99.90;;;-141.84;100.00;119222.75;5009065;28;20225;-53
2024/02/08 00:14:20;;;;;;;3.27;2.70;;;2.60;99.90;;;-141.84;100.00;118422.72;5008563;28;20251;-48
2024/02/08 00:16:49;;;;;;;2.97;2.60;;;2.60;99.90;;;-141.84;100.00;118422.72;5009589;28;20232;-54
2024/02/08 00:19:18;;;;;;;4.00;2.73;;;2.60;99.90;;;-141.84;100.00;118689.38;5008996;28;20221;-55
2024/02/08 00:21:46;;;;;;;3.73;2.50;;;2.60;99.90;;;-141.84;100.00;117356.25;5000672;28;20222;-53
2024/02/08 00:24:15;;;;;;;3.37;2.70;;;2.60;99.90;;;-141.84;100.00;111229.50;5000018;28;20218;-53
2024/02/08 00:26:43;;;;;;;8.93;2.83;;;2.80;99.90;;;-141.84;98.80;105111.94;5006555;28;20597;-55
2024/02/08 00:29:11;;;;;;;4.80;2.87;;;2.80;99.90;;;-141.84;100.00;107770.63;5017018;28;20242;-53
2024/02/08 00:31:39;;;;;;;3.30;2.90;;;2.80;99.90;;;-141.84;100.00;113359.50;5006879;28;20199;-53
2024/02/08 00:34:09;;;;;;;5.30;2.87;;;2.80;99.90;;;-141.84;100.00;116556.59;5008283;28;20228;-53
2024/02/08 00:36:38;;;;;;;5.13;3.20;;;2.70;99.90;;;-141.84;100.00;116556.59;5023264;28;20225;-54
2024/02/08 00:39:06;;;;;;;6.37;2.87;;;2.70;99.90;;;-141.84;100.00;116023.56;5028463;28;20673;-55
2024/02/08 00:41:36;;;;;;;5.37;3.50;;;2.80;99.90;;;-141.84;100.00;117622.84;5028025;28;20218;-51
2024/02/08 00:44:04;;;;;;;5.20;2.70;;;2.70;99.90;;;-141.84;100.00;119222.75;5028276;28;20212;-53
2024/02/08 00:46:33;;;;;;;3.90;3.00;;;2.60;99.90;;;-141.84;100.00;119224.81;5028802;28;20262;-55
2024/02/08 00:49:01;;;;;;;3.60;2.90;;;2.60;99.90;;;-141.84;100.00;119224.81;5028900;28;20222;-54
2024/02/08 00:51:31;;;;;;;3.27;2.60;;;2.50;99.90;;;-141.84;100.00;119224.81;5032003;28;20224;-50
2024/02/08 00:54:00;;;;;;;3.57;2.90;;;2.50;99.90;;;-141.84;100.00;119224.81;5032230;28;20225;-55
2024/02/08 00:56:28;;;;;;;6.97;3.23;;;2.60;99.90;;;-141.84;100.00;119224.81;5023836;28;20326;-53
2024/02/08 00:58:56;;;;;;;4.97;2.80;;;2.50;99.90;;;-141.84;100.00;119224.81;5031725;28;20289;-51
2024/02/08 01:01:25;;;;;;;5.60;2.97;;;2.50;99.90;;;-141.84;100.00;119224.81;5032268;28;20195;-53
2024/02/08 01:03:56;;;;;;;4.33;3.10;;;2.40;99.90;;;-141.84;100.00;119224.81;5031543;28;20724;-54
2024/02/08 01:06:25;;;;;;;4.13;2.57;;;2.40;99.90;;;-141.84;100.00;119224.81;5031403;28;20228;-53
2024/02/08 01:08:55;;;;;;;3.70;2.87;;;2.40;99.90;;;-141.84;100.00;119224.81;5031274;28;20228;-54
2024/02/08 01:11:23;;;;;;;4.53;2.97;;;2.40;99.90;;;-141.84;100.00;119224.81;5032134;28;20218;-53
2024/02/08 01:13:52;;;;;;;4.13;2.80;;;2.40;99.90;;;-141.84;100.00;119224.81;5031791;28;20291;-50
2024/02/08 01:16:20;;;;;;;3.87;2.90;;;2.30;99.90;;;-141.84;100.00;119224.81;5031614;28;20223;-50
2024/02/08 01:18:48;;;;;;;4.60;2.87;;;2.30;99.90;;;-141.84;100.00;119224.81;5031498;28;20222;-54
2024/02/08 01:21:16;;;;;;;3.30;2.80;;;2.30;99.90;;;-141.84;100.00;119224.81;5031242;28;20225;-55
2024/02/08 01:23:46;;;;;;;3.90;3.27;;;2.20;99.90;;;-141.84;100.00;119224.81;5031325;28;20247;-53
2024/02/08 01:26:16;;;;;;;4.97;3.20;;;2.10;99.90;;;-141.84;100.00;119224.81;5031403;28;20229;-53
2024/02/08 01:28:44;;;;;;;5.53;3.20;;;2.10;99.90;;;-141.84;100.00;119224.81;5028927;28;20257;-55
2024/02/08 01:31:13;;;;;;;4.70;3.10;;;2.10;99.90;;;-141.84;100.00;119224.81;5031281;28;20232;-53
2024/02/08 01:33:42;;;;;;;4.40;2.70;;;2.00;99.90;;;-141.84;100.00;119224.81;5031550;28;20220;-52
2024/02/08 01:36:10;;;;;;;4.07;3.33;;;1.90;99.90;;;-141.84;100.00;119224.81;5031249;28;20230;-52
2024/02/08 01:38:40;;;;;;;6.97;3.70;;;1.90;99.90;;;-141.84;100.00;119224.81;5031369;28;20252;-53
2024/02/08 01:41:09;;;;;;;5.23;3.67;;;2.00;99.90;;;-141.84;100.00;119224.81;5031306;28;20285;-55
2024/02/08 01:43:39;;;;;;;4.93;3.57;;;1.90;99.90;;;-141.84;100.00;119224.81;5031402;28;20199;-53
2024/02/08 01:46:09;;;;;;;6.70;3.73;;;2.00;99.90;;;-141.84;100.00;119224.81;5030961;28;20253;-54
2024/02/08 01:48:44;;;;;;;6.40;4.00;;;1.90;99.90;;;-141.84;100.00;119224.81;5030908;28;20226;-54
2024/02/08 01:51:13;;;;;;;4.63;3.50;;;2.00;99.90;;;-141.84;100.00;119224.81;5023595;28;20335;-53
2024/02/08 01:53:44;;;;;;;6.17;4.30;;;2.00;99.90;;;-141.84;100.00;119224.81;5031084;28;20272;-55
2024/02/08 01:56:14;;;;;;;5.20;3.70;;;2.00;99.90;;;-141.84;100.00;119224.81;5030715;28;20648;-55
2024/02/08 01:58:47;;;;;;;4.97;3.90;;;2.00;99.90;;;-141.84;100.00;119224.81;5031056;28;20186;-54
2024/02/08 02:01:16;;;;;;;4.80;3.60;;;2.00;99.90;;;-141.84;100.00;119224.81;5030247;28;20206;-53
2024/02/08 02:03:46;;;;;;;5.63;3.90;;;2.00;99.90;;;-141.84;100.00;119224.81;5030498;28;20326;-54
2024/02/08 02:06:14;;;;;;;7.33;3.80;;;2.10;99.90;;;-141.84;100.00;119224.81;5030207;28;20722;-52
2024/02/08 02:08:52;;;;;;;4.83;3.83;;;2.10;99.90;;;-141.84;100.00;119224.81;5030379;28;20266;-56
2024/02/08 02:11:28;;;;;;;6.60;4.43;;;2.10;99.90;;;-141.84;100.00;119224.81;5027522;28;20226;-54
2024/02/08 02:13:59;;;;;;;5.27;3.90;;;2.00;99.90;;;-141.84;100.00;119224.81;5028464;28;20194;-54
2024/02/08 02:16:27;;;;;;;5.93;4.20;;;2.10;99.90;;;-141.84;100.00;119224.81;5031093;28;20597;-53
2024/02/08 02:18:56;;;;;;;5.60;3.90;;;2.10;99.90;;;-141.84;100.00;119224.81;5030278;28;20242;-52
2024/02/08 02:21:27;;;;;;;4.23;3.43;;;2.20;99.90;;;-141.84;100.00;119224.81;5030329;28;20225;-54
2024/02/08 02:23:56;;;;;;;6.37;3.90;;;2.20;99.90;;;-141.84;100.00;119224.81;5028127;28;20289;-54
2024/02/08 02:26:25;;;;;;;6.17;4.53;;;2.20;99.90;;;-141.84;100.00;119224.81;5030268;28;20233;-56
2024/02/08 02:28:54;;;;;;;5.37;4.20;;;2.30;99.90;;;-141.84;100.00;119224.81;5028032;28;20782;-53
2024/02/08 02:31:24;;;;;;;4.93;4.20;;;2.30;99.90;;;-141.84;100.00;119224.81;5019712;28;20278;-55
2024/02/08 02:33:54;;;;;;;7.40;4.67;;;2.40;99.90;;;-141.84;100.00;119224.81;5019303;28;20234;-54
2024/02/08 02:36:23;;;;;;;7.37;4.40;;;2.30;99.90;;;-141.84;100.00;119224.81;5018961;28;20695;-53
2024/02/08 02:38:52;;;;;;;5.10;4.07;;;2.40;99.90;;;-141.84;100.00;119224.81;5018863;28;20655;-53
2024/02/08 02:41:25;;;;;;;6.43;4.27;;;2.40;99.90;;;-141.84;100.00;119224.81;5026725;28;20249;-53
2024/02/08 02:43:53;;;;;;;5.63;4.30;;;2.40;99.90;;;-141.84;100.00;119224.81;5021128;28;20190;-53
2024/02/08 02:46:22;;;;;;;7.00;4.40;;;2.40;99.90;;;-141.84;100.00;119224.81;5021762;28;20198;-54
2024/02/08 02:48:50;;;;;;;5.10;4.20;;;2.40;99.90;;;-141.84;100.00;119224.81;5019087;28;20227;-52
2024/02/08 02:51:19;;;;;;;7.27;5.20;;;2.40;99.90;;;-141.84;100.00;119224.81;5023310;28;20223;-51
2024/02/08 02:53:47;;;;;;;5.83;4.63;;;2.50;99.90;;;-141.84;100.00;119224.81;5021165;28;20755;-55
2024/02/08 02:56:19;;;;;;;6.73;4.93;;;2.40;99.90;;;-141.84;100.00;119224.81;5018618;28;20279;-53
2024/02/08 02:58:47;;;;;;;7.70;5.20;;;2.50;99.90;;;-141.84;100.00;119224.81;5018972;28;20723;-52
2024/02/08 03:01:16;;;;;;;6.47;4.53;;;2.50;99.90;;;-141.84;100.00;119224.81;5001481;28;20698;-53
2024/02/08 03:03:47;;;;;;;6.20;4.30;;;2.50;99.90;;;-141.84;100.00;119224.81;4998071;28;20229;-53
2024/02/08 03:06:15;;;;;;;6.20;5.03;;;2.50;99.90;;;-141.84;100.00;119224.81;5019989;28;20794;-54
2024/02/08 03:08:46;;;;;;;6.80;4.77;;;2.50;99.90;;;-141.84;100.00;119224.81;5040048;28;20786;-48
2024/02/08 03:11:16;;;;;;;5.70;5.00;;;2.50;99.90;;;-141.84;100.00;119224.81;5042848;28;20247;-49
2024/02/08 03:13:46;;;;;;;6.53;5.13;;;2.50;99.90;;;-141.84;100.00;119224.81;5040553;28;20195;-52
2024/02/08 03:16:16;;;;;;;6.13;5.40;;;2.50;99.90;;;-141.84;100.00;119224.81;5038234;28;20210;-53
2024/02/08 03:18:48;;;;;;;7.97;5.33;;;2.50;99.90;;;-141.84;100.00;119224.81;5037698;28;20237;-53
2024/02/08 03:21:21;;;;;;;6.80;5.63;;;2.40;99.90;;;-141.84;100.00;119224.81;5035783;28;20669;-50
2024/02/08 03:23:50;;;;;;;7.20;6.00;;;2.40;99.90;;;-141.84;100.00;119224.81;5040435;28;20222;-53
2024/02/08 03:26:20;;;;;;;7.93;5.70;;;2.40;99.90;;;-141.84;100.00;119224.81;5040344;28;20768;-53
2024/02/08 03:28:54;;;;;;;8.07;5.90;;;2.40;99.90;;;-141.84;100.00;119224.81;5038900;28;20223;-54
2024/02/08 03:31:24;;;;;;;9.10;6.43;;;2.50;99.90;;;-141.84;100.00;119224.81;5038007;28;20214;-51
2024/02/08 03:33:53;;;;;;;8.07;6.37;;;2.50;99.90;;;-141.84;100.00;119224.81;5037594;28;20224;-56
2024/02/08 03:36:23;;;;;;;9.07;6.33;;;2.50;99.90;;;-141.84;100.00;119224.81;5040141;28;20221;-50
2024/02/08 03:38:52;;;;;;;8.90;6.47;;;2.50;99.90;;;-141.84;100.00;119224.81;5040079;28;20675;-53
2024/02/08 03:41:26;;;;;;;9.27;7.30;;;2.50;99.90;;;-141.84;100.00;119224.81;5039478;28;20233;-54
2024/02/08 03:43:54;;;;;;;10.37;6.83;;;2.60;99.90;;;-141.84;100.00;119224.81;5040359;28;20201;-52
2024/02/08 03:46:24;;;;;;;8.43;7.00;;;2.60;99.90;;;-141.84;100.00;119224.81;5040654;28;20232;-55
2024/02/08 03:48:54;;;;;;;9.50;6.13;;;2.60;99.90;;;-141.84;100.00;119224.81;5040905;28;20563;-55
2024/02/08 03:51:22;;;;;;;8.83;7.00;;;2.60;99.90;;;-141.84;100.00;119222.75;5037607;28;20222;-55
2024/02/08 03:53:52;;;;;;;10.20;6.90;;;2.60;99.90;;;-141.84;100.00;119224.81;5037562;28;20603;-55
2024/02/08 03:56:26;;;;;;;8.00;6.40;;;2.60;99.90;;;-141.84;100.00;119224.81;5039971;28;20383;-51
2024/02/08 03:58:54;;;;;;;9.07;7.03;;;2.70;99.90;;;-141.84;100.00;118956.03;5040058;28;20248;-51
2024/02/08 04:01:22;;;;;;;8.87;7.27;;;2.70;99.90;;;-141.84;100.00;118156.06;5038814;28;20197;-53
2024/02/08 04:03:56;;;;;;;9.13;7.00;;;2.80;99.90;;;-141.84;100.00;118156.06;5036946;28;20222;-53
2024/02/08 04:06:37;;;;;;;7.47;6.43;;;2.70;99.90;;;-141.84;100.00;118689.38;5037169;28;20736;-53
2024/02/08 04:09:16;;;;;;;8.77;7.40;;;2.80;99.90;;;-141.84;100.00;118956.03;5040954;28;20217;-54
2024/02/08 04:53:37;;;;;;;15.67;10.43;;;2.80;99.90;;;-141.84;100.00;119222.75;5040926;28;20235;-52
2024/02/08 04:56:10;;;;;;;14.87;10.97;;;2.80;99.90;;;-141.84;100.00;118422.72;5042199;28;20706;-53
2024/02/08 04:58:41;;;;;;;14.13;10.30;;;2.80;99.90;;;-141.84;100.00;117622.84;5043806;28;20578;-55
2024/02/08 05:01:14;;;;;;;15.67;10.33;;;2.80;99.90;;;-141.84;100.00;118422.72;5042524;28;20261;-53
2024/02/08 05:03:44;;;;;;;14.97;11.27;;;2.80;99.90;;;-141.84;100.00;118956.03;5040785;28;20258;-52
2024/02/08 05:06:18;;;;;;;18.73;12.97;;;2.70;99.90;;;-141.84;100.00;119222.75;5040226;28;20242;-53
2024/02/08 05:08:50;;;;;;;18.63;12.33;;;2.70;99.90;;;-141.84;100.00;119224.81;5048831;28;20630;-52
2024/02/08 05:11:19;;;;;;;17.97;12.27;;;2.80;99.90;;;-141.84;100.00;119224.81;5045924;28;20356;-54
2024/02/08 05:13:50;;;;;;;14.97;11.83;;;2.70;99.90;;;-141.84;100.00;118956.03;5043873;28;20202;-50
2024/02/08 05:16:20;;;;;;;17.80;12.90;;;2.70;99.90;;;-141.84;100.00;119222.75;5042630;28;20220;-52
2024/02/08 05:18:49;;;;;;;18.47;12.43;;;2.70;99.90;;;-141.84;100.00;118689.38;5042649;28;20246;-54
2024/02/08 05:21:18;;;;;;;17.77;12.77;;;2.80;99.90;;;-141.84;100.00;118689.38;5042250;28;20654;-53
2024/02/08 05:23:47;;;;;;;19.13;13.27;;;2.80;99.90;;;-141.84;100.00;118156.06;5042799;28;20307;-52
2024/02/08 05:26:19;;;;;;;17.20;12.73;;;2.80;99.90;;;-141.84;100.00;118689.38;5042576;28;20250;-55
2024/02/08 05:28:48;;;;;;;18.13;12.57;;;2.80;99.90;;;-141.84;100.00;119222.75;5043346;28;20624;-52
2024/02/08 05:31:18;;;;;;;18.77;13.50;;;2.80;99.90;;;-141.84;100.00;119224.81;5042552;28;20211;-52
2024/02/08 05:33:47;;;;;;;17.23;12.60;;;2.80;99.90;;;-141.84;100.00;119224.81;5034243;28;20596;-52
2024/02/08 05:36:17;;;;;;;18.23;13.57;;;2.70;99.90;;;-141.84;100.00;119224.81;5041544;28;20221;-55
2024/02/08 05:38:46;;;;;;;20.07;13.97;;;2.70;99.90;;;-141.84;100.00;119224.81;5042268;28;20217;-54
2024/02/08 05:41:15;;;;;;;16.33;13.03;;;2.80;99.90;;;-141.84;100.00;119224.81;5041695;28;20242;-52
2024/02/08 05:43:45;;;;;;;18.97;12.93;;;2.80;99.90;;;-141.84;100.00;119222.75;5042651;28;20193;-55
2024/02/08 05:46:19;;;;;;;17.60;12.53;;;2.90;99.90;;;-141.84;100.00;118956.03;5042492;28;20228;-54
2024/02/08 05:48:51;;;;;;;20.50;13.43;;;2.90;99.90;;;-141.84;100.00;118156.06;5047693;28;20297;-50
2024/02/08 05:51:22;;;;;;;18.63;13.33;;;2.90;99.90;;;-141.84;100.00;117889.44;5039429;28;20222;-55
2024/02/08 05:53:53;;;;;;;17.83;13.30;;;3.00;99.90;;;-141.84;100.00;117889.44;5040351;28;20221;-54
2024/02/08 05:56:21;;;;;;;17.80;13.23;;;3.00;99.90;;;-141.84;100.00;116556.59;5042022;28;20224;-55
2024/02/08 05:58:51;;;;;;;18.07;13.40;;;2.90;99.90;;;-141.84;100.00;116023.56;5042827;28;20220;-50
2024/02/08 06:01:21;;;;;;;18.03;12.53;;;2.90;99.90;;;-141.84;100.00;117089.69;5039743;28;20215;-53
2024/02/08 06:04:00;;;;;;;16.43;13.07;;;2.90;99.90;;;-141.84;100.00;117889.44;5039401;28;20215;-52
2024/02/08 06:06:33;;;;;;;18.70;12.50;;;2.90;99.90;;;-141.84;100.00;118422.72;5040180;28;20321;-56
2024/02/08 06:09:08;;;;;;;16.23;12.33;;;2.90;99.90;;;-141.84;100.00;118689.38;5048007;28;20226;-55
2024/02/08 06:11:38;;;;;;;15.97;11.60;;;3.00;99.90;;;-141.84;100.00;118689.38;5049611;28;20226;-54
2024/02/08 06:14:12;;;;;;;22.30;16.40;;;3.00;99.90;;;-141.84;100.00;118422.72;5039732;28;20682;-53
2024/02/08 06:16:46;;;;;;;17.73;13.17;;;3.00;99.90;;;-141.84;100.00;118689.38;5039861;28;20218;-54
2024/02/08 06:19:17;;;;;;;19.10;14.27;;;3.00;99.90;;;-141.84;100.00;118956.03;5041251;28;20232;-54
2024/02/08 06:21:47;;;;;;;17.00;12.47;;;3.00;99.90;;;-141.84;100.00;119222.75;5041506;28;20246;-55
2024/02/08 06:24:32;;;;;;;17.77;12.70;;;3.00;99.90;;;-141.84;100.00;118422.72;5040947;28;20244;-54
2024/02/08 06:27:01;;;;;;;14.17;11.50;;;3.00;99.90;;;-141.84;100.00;114957.72;5039024;28;20233;-51
2024/02/08 06:29:42;;;;;;;15.60;11.83;;;3.10;99.90;;;-141.84;100.00;114691.31;5039046;28;20252;-55
2024/02/08 06:32:43;;;;;;;16.00;12.00;;;3.00;99.90;;;-141.84;100.00;116290.06;5041233;28;20792;-55
2024/02/08 06:35:19;;;;;;;17.33;12.53;;;3.10;99.90;;;-141.84;100.00;115490.59;5039015;28;20226;-55
2024/02/08 06:37:56;;;;;;;16.93;12.97;;;3.10;99.90;;;-141.84;100.00;113359.50;5038968;28;20208;-51
2024/02/08 06:40:36;;;;;;;17.63;12.47;;;3.10;99.90;;;-141.84;100.00;113093.19;5039407;28;20214;-53
2024/02/08 06:43:42;;;;;;;16.20;12.10;;;3.10;99.90;;;-141.84;98.98;107770.63;5041841;28;20221;-53
2024/02/08 06:46:09;;;;;;;17.30;12.83;;;3.20;99.90;;;-141.84;98.85;105643.53;5037939;28;20218;-53
2024/02/08 07:37:14;;;;;;;16.23;12.20;;;3.10;99.90;;;-141.84;99.12;106706.94;5039767;28;20227;-50
2024/02/08 07:42:17;;;;;;;18.70;13.60;;;3.70;99.90;;;-141.84;93.92;95555.09;4916358;29;20307;-54
2024/02/08 07:44:52;;;;;;;18.67;12.80;;;3.70;99.90;;;-141.84;94.04;96881.06;5002343;28;20232;-53
2024/02/08 07:47:24;;;;;;;16.73;12.57;;;3.80;99.90;;;-141.84;92.61;92639.44;5031500;28;20312;-53
2024/02/08 07:49:57;;;;;;;17.00;11.67;;;3.90;99.90;;;-141.84;92.78;92639.44;5040115;28;20199;-54
2024/02/08 07:52:29;;;;;;;15.40;11.93;;;3.90;99.90;;;-141.84;92.51;92109.53;5040638;28;20483;-54
2024/02/08 07:55:14;;;;;;;18.27;12.67;;;4.00;99.90;;;-141.84;90.71;87343.63;5039802;28;20229;-53
2024/02/08 07:57:48;;;;;;;13.83;11.37;;;4.00;99.90;;;-141.84;86.65;72288.75;5039566;28;20227;-52
2024/02/08 08:00:41;;;;;;;15.13;11.07;;;4.10;99.90;;;-141.84;82.82;49681.28;5037409;28;20236;-53
2024/02/08 08:03:15;;;;;;;20.90;11.77;;;4.20;99.90;;;-141.84;82.05;43395.16;5042813;28;20232;-53
2024/02/08 08:05:50;;;;;;;13.80;11.33;;;4.20;99.90;;;-141.84;81.57;37786.63;5037503;28;20235;-55
2024/02/08 08:08:25;;;;;;;15.57;11.70;;;4.00;99.90;;;-141.84;79.91;26848.06;5045335;28;20312;-53
2024/02/08 08:11:02;;;;;;;18.13;12.40;;;4.20;99.90;;;-141.84;82.26;41825.19;5041263;28;20199;-50
2024/02/08 08:14:06;;;;;;;16.27;11.37;;;4.10;99.90;;;-141.84;81.84;42086.81;5040450;28;20185;-50
2024/02/08 08:16:37;;;;;;;14.90;12.00;;;4.10;99.90;;;-141.84;81.06;37180.28;5037608;28;20778;-50
2024/02/08 08:19:10;;;;;;;13.63;11.53;;;4.30;99.90;;;-141.84;80.65;31372.72;5038784;28;20255;-54
2024/02/08 08:22:03;;;;;;;13.43;11.17;;;4.40;99.90;;;-141.84;80.90;35980.13;5039846;28;20224;-54
2024/02/08 08:24:59;;;;;;;14.23;11.57;;;4.50;99.90;;;-141.84;79.91;31083.28;5037080;28;20225;-52
2024/02/08 08:27:26;;;;;;;13.00;10.20;;;4.50;99.90;;;-141.84;77.58;20862.69;5037370;28;20225;-54
2024/02/08 08:29:58;;;;;;;13.97;10.80;;;4.50;99.90;;;-141.84;79.11;23840.00;5043018;28;20267;-54
2024/02/08 08:33:07;;;;;;;14.47;10.57;;;4.50;99.90;;;-141.84;80.21;29398.00;5037218;28;20233;-52
2024/02/08 08:35:53;;;;;;;14.47;10.00;;;4.50;99.90;;;-141.84;78.67;24220.44;5037231;28;20236;-52
2024/02/08 08:38:33;;;;;;;14.90;9.50;;;4.60;99.90;;;-141.84;77.30;21112.72;5037063;28;20245;-54
2024/02/08 08:41:04;;;;;;;12.60;10.23;;;4.50;99.90;;;-141.84;74.88;18883.13;5042455;28;20201;-53
2024/02/08 08:43:36;;;;;;;14.00;10.10;;;4.60;99.90;;;-141.84;75.04;18929.88;5040271;28;20189;-56
2024/02/08 08:46:10;;;;;;;11.83;9.53;;;4.60;99.90;;;-141.84;74.65;18852.66;5039473;28;20548;-55
2024/02/08 08:48:40;;;;;;;13.53;9.93;;;4.50;99.90;;;-141.84;74.65;18907.50;5045226;28;20712;-49
2024/02/08 08:51:14;;;;;;;12.83;9.80;;;4.70;99.90;;;-141.84;74.22;18789.66;5037206;28;20263;-50
2024/02/08 08:53:44;;;;;;;11.80;9.10;;;4.80;99.90;;;-141.84;74.76;18899.38;5038297;28;20221;-55
2024/02/08 08:56:13;;;;;;;12.33;9.43;;;4.80;99.90;;;-141.84;73.40;18598.69;5039543;28;20304;-54
2024/02/08 08:58:48;;;;;;;12.27;9.33;;;4.80;99.90;;;-141.84;73.42;18659.63;5040629;28;20257;-51
2024/02/08 09:01:21;;;;;;;11.87;8.57;;;4.80;99.90;;;-141.84;73.58;18627.13;5036998;28;20206;-56
2024/02/08 09:04:09;;;;;;;11.40;8.67;;;4.80;99.90;;;-141.84;73.00;18572.25;5036792;28;20807;-56
2024/02/08 09:06:41;;;;;;;11.83;9.17;;;4.70;99.90;;;-141.84;72.51;18509.28;5036692;28;20252;-52
2024/02/08 09:11:57;;;;;;;11.90;9.00;;;4.80;99.90;;;-141.84;74.45;18842.50;5039950;28;20221;-55
2024/02/08 09:14:30;;;;;;;9.10;7.43;;;4.80;99.90;;;-141.84;73.70;18716.53;5040442;28;20237;-53
2024/02/08 09:17:03;;;;;;;9.93;7.50;;;4.80;99.90;;;-141.84;73.93;18688.06;5040480;28;20193;-52
2024/02/08 09:19:51;;;;;;;10.63;8.13;;;4.80;99.90;;;-141.84;74.61;18907.50;5039958;28;20700;-54
2024/02/08 09:22:20;;;;;;;10.57;8.13;;;4.90;99.90;;;-141.84;74.47;18944.09;5041162;28;20199;-52
2024/02/08 09:24:50;;;;;;;11.53;7.83;;;5.00;99.90;;;-141.84;73.87;18763.25;5039936;28;20229;-54
2024/02/08 09:27:25;;;;;;;10.87;8.40;;;5.00;99.90;;;-141.84;74.21;18838.44;5040744;28;20233;-54
2024/02/08 09:29:56;;;;;;;9.20;7.70;;;5.10;99.90;;;-141.84;73.78;18769.34;5042642;28;20275;-54
2024/02/08 09:35:12;;;;;;;9.70;7.60;;;5.20;99.90;;;-141.84;72.77;18637.28;5039379;28;20194;-54
2024/02/08 09:37:46;;;;;;;9.97;7.17;;;5.30;99.90;;;-141.84;72.49;18586.50;5049105;28;20203;-54
2024/02/08 09:40:20;;;;;;;10.63;7.70;;;5.40;99.90;;;-141.84;71.72;18560.06;5039725;28;20736;-56
2024/02/08 09:42:55;;;;;;;8.80;6.93;;;5.40;99.90;;;-141.84;69.76;18419.88;5043421;28;20224;-51
2024/02/08 09:45:43;;;;;;;8.13;6.47;;;5.60;99.90;;;-141.84;67.42;18344.72;5041960;28;20600;-55
2024/02/08 09:48:25;;;;;;;8.27;6.53;;;5.70;99.90;;;-141.84;67.89;18377.22;5042202;28;20689;-55
2024/02/08 09:51:01;;;;;;;10.47;7.87;;;5.80;99.90;;;-141.84;67.82;18371.13;5039740;28;20218;-55
2024/02/08 09:53:31;;;;;;;11.10;7.40;;;5.90;99.90;;;-141.84;67.84;18391.44;5040254;28;20233;-53
2024/02/08 09:56:15;;;;;;;11.50;7.27;;;5.90;99.90;;;-141.84;67.99;18419.88;5039438;28;20292;-54
2024/02/08 09:58:55;;;;;;;10.77;7.87;;;6.00;99.90;;;-141.84;65.99;18344.72;5043016;28;20247;-52
2024/02/08 10:01:43;;;;;;;9.47;7.03;;;6.20;99.90;;;-141.84;64.85;18379.25;5040327;28;20717;-53
2024/02/08 10:04:19;;;;;;;8.23;5.93;;;6.30;99.90;;;-141.84;63.57;18387.38;5040877;28;20225;-55
2024/02/08 10:06:58;;;;;;;7.27;5.77;;;6.30;99.90;;;-141.84;62.53;18403.63;5042003;28;20233;-54
2024/02/08 10:09:40;;;;;;;9.57;6.57;;;6.30;99.90;;;-141.84;62.93;18397.53;5040483;28;20736;-52
2024/02/08 10:12:18;;;;;;;9.77;7.53;;;6.40;99.90;;;-141.84;63.83;18405.66;5050129;28;20229;-51
2024/02/08 10:14:54;;;;;;;8.63;6.57;;;6.40;99.90;;;-141.84;62.50;18371.13;5039767;28;20249;-52
2024/02/08 10:17:24;;;;;;;7.90;6.23;;;6.50;99.90;;;-141.84;61.47;18379.25;5039448;28;20633;-52
2024/02/08 10:22:53;;;;;;;9.23;7.17;;;6.50;99.90;;;-141.84;62.24;18436.16;5042895;28;20198;-56
2024/02/08 10:28:10;;;;;;;10.20;8.00;;;6.50;99.90;;;-141.84;61.76;18381.28;5041487;28;20301;-52
2024/02/08 10:30:44;;;;;;;11.23;7.93;;;6.40;99.90;;;-141.84;61.85;18411.75;5039008;28;20221;-55
2024/02/08 10:33:14;;;;;;;13.57;8.00;;;6.50;99.90;;;-141.84;61.97;18387.38;5038912;28;20232;-55
2024/02/08 10:35:47;;;;;;;9.87;7.87;;;6.60;99.90;;;-141.84;62.85;18411.75;5039291;28;20218;-54
2024/02/08 10:38:29;;;;;;;10.73;7.93;;;6.60;99.90;;;-141.84;62.52;18393.47;5039055;28;20225;-56
2024/02/08 10:40:58;;;;;;;9.67;7.50;;;6.60;99.90;;;-141.84;61.02;18413.78;5043347;28;20304;-53
2024/02/08 10:43:37;;;;;;;11.37;8.10;;;6.70;99.90;;;-141.84;59.84;18417.84;5041854;28;20255;-52
2024/02/08 10:46:16;;;;;;;9.47;7.83;;;6.70;99.90;;;-141.84;61.41;18403.63;5041035;28;20338;-52
2024/02/08 10:48:49;;;;;;;12.50;8.37;;;6.70;99.90;;;-141.84;61.02;18423.94;5038912;28;20625;-55
2024/02/08 10:51:25;;;;;;;10.20;7.63;;;6.70;99.90;;;-141.84;61.22;18411.75;5044142;28;20217;-54
2024/02/08 10:54:05;;;;;;;10.50;7.40;;;6.80;99.90;;;-141.84;60.32;18423.94;5038760;28;20221;-49
2024/02/08 10:56:44;;;;;;;9.33;7.53;;;6.70;99.90;;;-141.84;60.26;18428.03;5038767;28;20247;-53
2024/02/08 10:59:20;;;;;;;10.57;7.83;;;6.80;99.90;;;-141.84;60.94;18446.31;5034209;28;20225;-53
2024/02/08 11:02:01;;;;;;;10.27;8.30;;;6.80;99.90;;;-141.84;58.77;18440.22;5041142;28;20231;-51
2024/02/08 11:04:30;;;;;;;11.20;8.07;;;6.90;99.90;;;-141.84;59.57;18462.56;5038635;28;20229;-49
2024/02/08 11:07:16;;;;;;;10.13;8.20;;;6.90;99.90;;;-141.84;59.80;18458.50;5037294;28;20287;-55
2024/02/08 11:09:47;;;;;;;10.00;8.10;;;6.90;99.90;;;-141.84;61.17;18448.34;5041066;28;20286;-54
2024/02/08 11:12:22;;;;;;;10.20;7.87;;;6.90;99.90;;;-141.84;61.65;18462.56;5048318;28;20225;-54
2024/02/08 11:14:56;;;;;;;12.10;8.57;;;7.00;99.90;;;-141.84;61.36;18464.59;5038441;28;20222;-52
2024/02/08 11:17:32;;;;;;;10.07;7.73;;;7.10;99.90;;;-141.84;59.22;18450.38;5038121;28;20221;-53
2024/02/08 11:20:03;;;;;;;8.83;7.47;;;7.20;99.90;;;-141.84;58.59;18466.63;5039989;28;20691;-55
2024/02/08 11:22:39;;;;;;;10.43;7.53;;;7.30;99.90;;;-141.84;58.52;18505.22;5041261;28;20210;-54
2024/02/08 11:25:33;;;;;;;10.43;7.13;;;7.20;99.90;;;-141.84;57.87;18442.25;5039362;28;20290;-52
2024/02/08 11:28:11;;;;;;;9.47;7.27;;;7.20;99.90;;;-141.84;57.53;18474.75;5037865;28;20225;-54
2024/02/08 11:30:54;;;;;;;12.17;6.67;;;7.30;99.90;;;-141.84;56.75;18458.50;5037727;28;20222;-51
2024/02/08 11:33:32;;;;;;;11.97;8.33;;;7.30;99.90;;;-141.84;57.95;18480.84;5037144;28;20232;-55
2024/02/08 11:36:12;;;;;;;8.63;7.20;;;7.00;99.90;;;-141.84;60.49;18460.53;5040615;28;20236;-56
2024/02/08 11:38:46;;;;;;;8.77;7.37;;;6.90;99.90;;;-141.84;61.20;18444.28;5040025;28;20225;-53
2024/02/08 11:41:18;;;;;;;9.10;7.57;;;6.80;99.90;;;-141.84;62.11;18456.47;5041535;28;20320;-56
2024/02/08 11:43:48;;;;;;;9.90;7.30;;;6.70;99.90;;;-141.84;62.91;18464.59;5040951;28;20182;-54
2024/02/08 11:46:20;;;;;;;10.07;7.90;;;6.90;99.90;;;-141.84;64.30;18460.53;5039183;28;20217;-53
2024/02/08 11:48:49;;;;;;;10.60;7.97;;;6.60;99.90;;;-141.84;64.60;18458.50;5042465;28;21115;-54
2024/02/08 11:51:22;;;;;;;10.60;7.97;;;6.70;99.90;;;-141.84;62.71;18493.03;5037123;28;20218;-55
2024/02/08 11:54:09;;;;;;;9.77;7.73;;;6.70;99.90;;;-141.84;62.13;18442.25;5040165;28;20592;-54
2024/02/08 11:56:37;;;;;;;10.23;8.10;;;6.80;99.90;;;-141.84;60.00;18454.44;5039246;28;20231;-55
2024/02/08 11:59:11;;;;;;;9.90;7.93;;;6.90;99.90;;;-141.84;60.75;18452.41;5037261;28;20654;-54
2024/02/08 12:01:43;;;;;;;11.47;8.37;;;7.10;99.90;;;-141.84;59.08;18466.63;5037779;28;20256;-54
2024/02/08 12:04:16;;;;;;;10.30;7.97;;;7.20;99.90;;;-141.84;59.40;18488.97;5039494;28;20229;-54
2024/02/08 12:06:46;;;;;;;11.80;9.03;;;7.30;99.90;;;-141.84;58.33;18503.19;5039684;28;20605;-57
2024/02/08 12:09:22;;;;;;;10.90;8.20;;;7.30;99.90;;;-141.84;58.80;18505.22;5038429;28;20225;-54